Time;durP1;ratioP1;P1;durP2;ratioP2;P2;SDS_P1;SDS_P2;PMS_P1;PMS_P2;Temp;Humidity;BMP_temperature;BMP_pressure;BME280_temperature;BME280_humidity;BME280_pressure;Samples;Min_cycle;Max_cycle;Signal;HPM_P1;HPM_P2
2022/04/21 00:00:57;;;;;;;0.70;0.70;;;6.60;60.70;;;5.43;44.18;94448.75;5041461;28;20219;-87
2022/04/21 00:03:24;;;;;;;0.80;0.80;;;6.60;59.90;;;5.40;44.79;94454.28;5061183;28;20222;-87
2022/04/21 00:05:51;;;;;;;0.60;0.60;;;6.50;59.90;;;5.36;44.71;94453.03;5044921;28;20268;-87
2022/04/21 00:08:20;;;;;;;0.80;0.80;;;6.50;60.00;;;5.31;44.79;94452.72;5061614;28;20225;-87
2022/04/21 00:10:47;;;;;;;0.60;0.60;;;6.50;60.10;;;5.09;44.72;94410.06;5040369;28;20211;-87
2022/04/21 00:13:15;;;;;;;0.80;0.80;;;6.40;60.00;;;5.16;44.91;94433.63;5040520;28;20222;-87
2022/04/21 00:15:42;;;;;;;0.90;0.90;;;6.40;60.10;;;5.03;45.29;94416.78;5048460;28;20725;-87
2022/04/21 00:18:09;;;;;;;0.70;0.70;;;6.30;60.20;;;5.19;45.06;94447.09;5067503;28;20241;-87
2022/04/21 00:20:36;;;;;;;0.70;0.70;;;6.30;60.20;;;5.15;44.78;94447.59;5044496;28;20210;-87
2022/04/21 00:25:49;;;;;;;0.70;0.70;;;6.20;60.30;;;4.86;45.45;94416.03;5058679;28;20226;-87
2022/04/21 00:28:16;;;;;;;0.80;0.80;;;6.20;60.40;;;5.01;45.40;94447.31;5059521;28;20211;-87
2022/04/21 00:30:43;;;;;;;0.80;0.80;;;6.20;60.40;;;4.91;45.39;94447.53;5077503;28;20211;-87
2022/04/21 00:33:10;;;;;;;0.60;0.60;;;6.20;60.40;;;4.90;45.12;94456.28;5080011;28;20194;-87
2022/04/21 00:35:38;;;;;;;0.80;0.80;;;6.10;60.40;;;4.78;44.73;94445.44;5061894;28;20231;-87
2022/04/21 00:38:05;;;;;;;0.60;0.60;;;6.10;60.40;;;4.74;44.95;94440.78;5060580;28;20219;-87
2022/04/21 00:40:32;;;;;;;0.70;0.70;;;6.00;60.30;;;4.78;45.06;94455.84;5076924;28;20743;-87
2022/04/21 00:43:01;;;;;;;0.80;0.80;;;5.90;60.30;;;4.74;45.05;94457.16;5076428;28;20190;-87
2022/04/21 00:45:29;;;;;;;0.80;0.80;;;5.90;60.50;;;4.72;44.89;94453.91;5060376;28;20688;-87
2022/04/21 00:47:58;;;;;;;0.80;0.80;;;5.90;60.40;;;4.70;45.02;94458.47;5060011;28;20548;-87
2022/04/21 00:50:36;;;;;;;0.60;0.60;;;5.80;60.60;;;4.67;45.50;94458.00;5076058;28;20233;-87
2022/04/21 00:53:04;;;;;;;0.70;0.70;;;5.80;61.10;;;4.68;45.76;94463.03;5061236;28;20208;-87
2022/04/21 00:55:32;;;;;;;0.80;0.80;;;5.80;60.90;;;4.68;45.93;94457.03;5059984;28;20211;-87
2022/04/21 00:58:01;;;;;;;0.60;0.60;;;5.80;60.90;;;4.60;45.42;94445.69;5059580;28;20202;-88
2022/04/21 01:00:28;;;;;;;0.80;0.80;;;5.70;61.00;;;4.69;45.45;94458.63;5044076;28;20217;-87
2022/04/21 01:02:57;;;;;;;0.80;0.80;;;5.70;61.00;;;4.66;45.55;94454.56;5043793;28;20240;-87
2022/04/21 01:05:32;;;;;;;0.70;0.70;;;5.70;61.00;;;4.62;45.66;94446.31;5059799;28;20245;-87
2022/04/21 01:08:05;;;;;;;0.60;0.60;;;5.70;61.00;;;4.62;46.05;94458.50;5058392;28;20198;-87
2022/04/21 01:10:37;;;;;;;0.70;0.70;;;5.70;61.30;;;4.56;45.64;94446.19;5043538;28;20230;-87
2022/04/21 01:13:07;;;;;;;0.80;0.80;;;5.70;61.70;;;4.41;45.90;94427.88;5060791;28;20213;-87
2022/04/21 01:15:36;;;;;;;0.80;0.80;;;5.60;61.30;;;4.49;46.34;94444.25;5059071;28;20230;-87
2022/04/21 01:18:05;;;;;;;0.70;0.70;;;5.60;61.40;;;4.50;46.33;94442.44;5076691;28;20198;-87
2022/04/21 01:20:33;;;;;;;0.80;0.80;;;5.60;61.50;;;4.51;46.25;94441.47;5043534;28;20226;-87
2022/04/21 01:23:01;;;;;;;0.65;0.65;;;5.60;61.60;;;4.41;46.52;94426.06;5060544;28;20197;-88
2022/04/21 01:25:40;;;;;;;0.70;0.70;;;5.60;61.60;;;4.53;46.22;94444.72;5059817;28;20672;-86
2022/04/21 01:28:10;;;;;;;0.80;0.80;;;5.50;62.30;;;4.51;45.74;94436.28;5058425;28;20202;-87
2022/04/21 01:30:38;;;;;;;0.70;0.70;;;5.60;61.60;;;4.49;46.33;94436.44;5055607;28;20227;-87
2022/04/21 01:33:09;;;;;;;0.70;0.70;;;5.50;61.50;;;4.46;45.95;94436.78;5073472;28;20198;-87
2022/04/21 01:35:38;;;;;;;0.70;0.70;;;5.50;61.50;;;4.43;46.18;94431.09;5065865;28;20303;-87
2022/04/21 01:41:09;;;;;;;0.85;0.85;;;5.50;61.50;;;4.38;46.39;94434.22;5061987;28;20263;-87
2022/04/21 01:43:37;;;;;;;0.70;0.70;;;5.50;61.50;;;4.32;46.78;94434.84;5078893;28;20187;-87
2022/04/21 01:46:05;;;;;;;0.90;0.90;;;5.50;61.70;;;4.31;46.49;94434.03;5057523;28;20198;-87
2022/04/21 01:48:32;;;;;;;0.80;0.80;;;5.40;61.80;;;4.31;46.47;94433.25;5038267;28;20207;-87
2022/04/21 01:50:59;;;;;;;0.80;0.80;;;5.40;61.80;;;4.27;46.69;94418.97;5039450;28;20218;-86
2022/04/21 01:53:26;;;;;;;0.70;0.70;;;5.40;61.80;;;4.28;46.59;94428.38;5022767;28;20218;-87
2022/04/21 01:55:53;;;;;;;0.73;0.73;;;5.40;61.80;;;4.27;46.44;94430.16;5055137;28;20246;-87
2022/04/21 01:58:21;;;;;;;0.70;0.70;;;5.40;61.90;;;4.20;46.52;94428.38;5070226;28;20696;-87
2022/04/21 02:00:48;;;;;;;0.70;0.70;;;5.30;61.80;;;4.16;46.72;94423.53;5058769;28;20241;-88
2022/04/21 02:03:15;;;;;;;0.80;0.80;;;5.30;61.80;;;4.13;46.95;94425.66;5042416;28;20202;-88
2022/04/21 02:05:42;;;;;;;0.70;0.70;;;5.30;61.90;;;4.10;47.10;94420.75;5057963;28;20210;-87
2022/04/21 02:08:09;;;;;;;0.70;0.70;;;5.20;62.00;;;3.92;47.08;94395.81;5042774;28;20199;-87
2022/04/21 02:10:36;;;;;;;0.80;0.80;;;5.20;62.00;;;3.95;47.20;94411.03;5059181;28;20216;-87
2022/04/21 02:13:04;;;;;;;0.80;0.80;;;5.20;62.10;;;3.96;47.40;94417.06;5058845;28;20205;-87
2022/04/21 02:15:31;;;;;;;0.70;0.70;;;5.10;62.20;;;3.99;47.60;94422.72;5041909;28;20218;-87
2022/04/21 02:18:03;;;;;;;0.70;0.70;;;5.10;62.30;;;3.98;47.36;94413.31;5057010;28;20293;-87
2022/04/21 02:20:31;;;;;;;0.80;0.80;;;5.10;62.50;;;4.00;47.16;94407.97;5042851;28;20719;-87
2022/04/21 02:22:58;;;;;;;0.73;0.73;;;5.10;62.50;;;3.98;47.39;94405.53;5059236;28;20198;-87
2022/04/21 02:25:25;;;;;;;0.73;0.73;;;5.10;62.50;;;4.03;47.55;94407.66;5058024;28;20313;-87
2022/04/21 02:27:52;;;;;;;0.80;0.80;;;5.10;62.50;;;4.01;47.87;94396.63;5075682;28;20205;-87
2022/04/21 02:30:20;;;;;;;0.70;0.70;;;5.00;62.60;;;4.00;47.48;94380.25;5075945;28;20214;-87
2022/04/21 02:32:47;;;;;;;0.80;0.80;;;5.10;62.90;;;4.14;47.87;94399.50;5075870;28;20191;-87
2022/04/21 02:35:15;;;;;;;0.80;0.80;;;5.00;62.90;;;4.09;47.88;94381.03;5056034;28;20313;-87
2022/04/21 02:37:47;;;;;;;0.73;0.73;;;5.10;63.10;;;4.27;47.83;94393.81;5059244;28;20191;-87
2022/04/21 02:40:15;;;;;;;0.70;0.70;;;5.10;63.70;;;4.22;48.01;94379.72;5058523;28;20763;-87
2022/04/21 02:42:42;;;;;;;0.60;0.60;;;5.10;63.20;;;4.35;47.73;94395.59;5075689;28;20195;-86
2022/04/21 02:45:12;;;;;;;0.70;0.70;;;5.20;63.20;;;4.42;47.86;94401.75;5038372;28;20227;-87
2022/04/21 02:47:43;;;;;;;0.70;0.70;;;5.30;63.20;;;4.38;47.58;94390.06;5062745;28;20213;-87
2022/04/21 02:50:13;;;;;;;0.60;0.60;;;5.30;63.20;;;4.42;47.70;94398.31;5058539;28;20286;-87
2022/04/21 02:52:41;;;;;;;0.60;0.60;;;5.30;63.20;;;4.44;47.85;94398.97;5041929;28;20297;-87
2022/04/21 02:57:58;;;;;;;0.80;0.80;;;5.30;63.20;;;4.35;47.77;94387.78;5082796;28;20222;-87
2022/04/21 03:00:26;;;;;;;0.60;0.60;;;5.40;63.20;;;4.38;47.87;94392.66;5046725;28;20221;-87
2022/04/21 03:02:54;;;;;;;0.60;0.60;;;5.30;63.20;;;4.30;48.06;94383.09;5045976;28;20209;-88
2022/04/21 03:05:21;;;;;;;0.70;0.70;;;5.30;63.20;;;4.43;48.16;94405.13;5061419;28;20223;-87
2022/04/21 03:07:48;;;;;;;0.80;0.80;;;5.30;63.40;;;4.46;48.46;94400.41;5062892;28;20558;-87
2022/04/21 03:10:15;;;;;;;0.70;0.70;;;5.30;63.50;;;4.52;48.30;94398.13;5062192;28;20396;-85
2022/04/21 03:12:42;;;;;;;0.80;0.80;;;5.30;63.60;;;4.59;48.36;94389.50;5062186;28;20201;-88
2022/04/21 03:15:11;;;;;;;0.70;0.70;;;5.40;63.80;;;4.67;48.52;94390.47;5079076;28;20256;-88
2022/04/21 03:17:39;;;;;;;0.80;0.80;;;5.40;63.90;;;4.71;48.39;94381.34;5045956;28;20256;-87
2022/04/21 03:20:06;;;;;;;0.73;0.73;;;5.50;64.00;;;4.71;48.23;94370.97;5061940;28;20238;-88
2022/04/21 03:25:20;;;;;;;0.70;0.70;;;5.60;65.00;;;4.95;48.34;94385.63;5061537;28;20225;-86
2022/04/21 03:27:50;;;;;;;0.70;0.70;;;5.60;63.90;;;4.96;47.99;94369.06;5060901;28;20188;-87
2022/04/21 03:30:17;;;;;;;0.70;0.70;;;5.70;64.00;;;5.04;48.20;94373.41;5048592;28;20230;-87
2022/04/21 03:32:45;;;;;;;0.60;0.60;;;5.70;64.00;;;5.08;48.17;94383.28;5060026;28;20229;-87
2022/04/21 03:35:12;;;;;;;0.70;0.70;;;5.80;64.00;;;5.02;47.83;94367.59;5061578;28;20218;-87
2022/04/21 03:37:40;;;;;;;0.60;0.60;;;5.80;63.90;;;5.10;48.17;94377.91;5044633;28;20226;-87
2022/04/21 03:40:08;;;;;;;0.70;0.70;;;5.80;63.90;;;5.13;47.96;94370.59;5058685;28;20287;-87
2022/04/21 03:42:35;;;;;;;0.70;0.70;;;5.90;64.00;;;5.18;48.54;94377.88;5055587;28;20227;-86
2022/04/21 03:45:02;;;;;;;0.70;0.70;;;5.90;63.90;;;5.13;48.14;94360.19;5061262;28;20215;-87
2022/04/21 03:47:29;;;;;;;0.70;0.70;;;5.90;63.90;;;5.24;48.36;94371.97;5060970;28;20211;-86
2022/04/21 03:49:57;;;;;;;0.80;0.80;;;6.00;63.90;;;5.29;48.28;94379.28;5044042;28;20249;-87
2022/04/21 03:52:24;;;;;;;0.60;0.60;;;6.00;63.80;;;5.20;48.07;94364.69;5041535;28;20199;-87
2022/04/21 03:54:51;;;;;;;0.60;0.60;;;6.10;63.90;;;5.32;48.23;94370.31;5061054;28;20241;-87
2022/04/21 03:57:20;;;;;;;0.60;0.60;;;6.10;63.80;;;5.21;48.37;94353.31;5060936;28;20203;-87
2022/04/21 03:59:47;;;;;;;0.68;0.68;;;6.10;63.80;;;5.42;47.87;94378.69;5059143;28;20378;-87
2022/04/21 04:02:14;;;;;;;0.50;0.50;;;6.20;64.80;;;5.46;48.24;94377.38;5057732;28;20195;-85
2022/04/21 04:04:41;;;;;;;0.70;0.70;;;6.20;63.90;;;5.48;48.13;94379.78;5059516;28;20248;-86
2022/04/21 04:12:40;;;;;;;0.70;0.70;;;6.30;64.00;;;5.56;48.26;94374.53;5076750;28;20208;-85
2022/04/21 04:15:09;;;;;;;0.60;0.60;;;6.30;64.00;;;5.60;48.34;94373.19;5075841;28;20211;-85
2022/04/21 04:17:37;;;;;;;0.70;0.70;;;6.30;64.20;;;5.64;48.45;94366.69;5059334;28;20195;-84
2022/04/21 04:20:06;;;;;;;0.60;0.60;;;6.30;64.20;;;5.70;48.56;94362.56;5074021;28;20700;-84
2022/04/21 04:22:37;;;;;;;0.50;0.50;;;6.40;64.30;;;5.75;48.41;94365.47;5058931;28;20541;-84
2022/04/21 04:25:05;;;;;;;0.60;0.60;;;6.40;64.70;;;5.85;48.22;94363.41;5075912;28;20229;-85
2022/04/21 04:27:32;;;;;;;0.70;0.70;;;6.50;64.40;;;5.95;48.35;94367.56;5041040;28;20217;-85
2022/04/21 04:29:59;;;;;;;0.65;0.65;;;6.50;64.40;;;5.87;48.63;94350.22;5071652;28;20211;-85
2022/04/21 04:32:26;;;;;;;0.60;0.60;;;6.60;64.50;;;6.06;48.51;94373.16;5059832;28;20268;-84
2022/04/21 04:34:53;;;;;;;0.60;0.60;;;6.70;64.60;;;6.12;48.59;94386.50;5076856;28;20222;-85
2022/04/21 04:37:20;;;;;;;0.70;0.70;;;6.70;64.50;;;6.08;48.53;94373.00;5043747;28;20190;-85
2022/04/21 04:39:48;;;;;;;0.60;0.60;;;6.70;64.60;;;6.07;49.03;94369.59;5043541;28;20231;-85
2022/04/21 04:42:23;;;;;;;0.70;0.70;;;6.80;64.60;;;6.20;48.69;94384.59;5063140;28;20289;-85
2022/04/21 04:47:39;;;;;;;0.60;0.60;;;6.80;64.70;;;6.25;48.60;94386.69;5075780;28;20220;-85
2022/04/21 04:50:08;;;;;;;0.60;0.60;;;6.90;64.60;;;6.28;48.43;94388.13;5042928;28;20693;-85
2022/04/21 04:52:35;;;;;;;0.60;0.60;;;6.90;64.60;;;6.30;48.68;94386.13;5076906;28;20191;-85
2022/04/21 04:55:03;;;;;;;0.70;0.70;;;6.90;64.50;;;6.28;48.79;94380.31;5056060;28;20222;-85
2022/04/21 04:57:31;;;;;;;0.80;0.80;;;7.00;64.70;;;6.38;48.89;94386.06;5061284;28;20197;-85
2022/04/21 05:00:03;;;;;;;0.65;0.65;;;7.00;65.60;;;6.31;49.19;94377.34;5077053;28;20222;-85
2022/04/21 05:02:30;;;;;;;0.80;0.80;;;7.00;64.80;;;6.40;49.04;94373.66;5076932;28;20202;-85
2022/04/21 05:04:58;;;;;;;0.60;0.60;;;7.10;64.90;;;6.52;49.05;94389.66;5041973;28;20217;-84
2022/04/21 05:07:25;;;;;;;0.60;0.60;;;7.10;64.90;;;6.59;49.20;94398.34;5073255;28;20278;-84
2022/04/21 05:09:52;;;;;;;0.60;0.60;;;7.10;64.90;;;6.62;48.96;94387.59;5058438;28;20223;-85
2022/04/21 05:12:20;;;;;;;0.60;0.60;;;7.20;65.10;;;6.56;48.70;94357.03;5076660;28;20193;-86
2022/04/21 05:14:48;;;;;;;0.60;0.60;;;7.20;65.10;;;6.80;49.10;94387.22;5043378;28;20714;-85
2022/04/21 05:17:16;;;;;;;0.60;0.60;;;7.30;65.20;;;6.84;49.27;94380.66;5041762;28;20203;-85
2022/04/21 05:19:43;;;;;;;0.60;0.60;;;7.30;65.20;;;6.96;49.44;94378.41;5042592;28;20237;-84
2022/04/21 05:22:13;;;;;;;0.60;0.60;;;7.40;65.40;;;7.05;49.42;94379.91;5043261;28;20209;-85
2022/04/21 05:24:46;;;;;;;0.70;0.70;;;7.40;65.50;;;7.03;49.00;94355.81;5043082;28;20219;-86
2022/04/21 05:27:14;;;;;;;0.60;0.60;;;7.50;65.40;;;7.31;49.10;94372.53;5059241;28;20203;-85
2022/04/21 05:32:30;;;;;;;0.70;0.70;;;7.70;65.60;;;7.54;49.05;94369.78;5062192;28;20194;-85
2022/04/21 05:34:58;;;;;;;0.60;0.60;;;7.80;65.60;;;7.64;48.96;94370.28;5059771;28;20643;-85
2022/04/21 05:37:26;;;;;;;0.60;0.60;;;7.90;65.50;;;7.77;49.11;94374.00;5066639;28;20301;-85
2022/04/21 05:39:53;;;;;;;0.60;0.60;;;8.00;65.60;;;7.88;48.95;94389.16;5075842;28;20752;-85
2022/04/21 05:42:24;;;;;;;0.60;0.60;;;8.10;65.60;;;7.92;49.36;94381.75;5042919;28;20205;-85
2022/04/21 05:44:54;;;;;;;0.60;0.60;;;8.20;66.00;;;8.03;49.04;94389.06;5074737;28;20223;-84
2022/04/21 05:47:22;;;;;;;0.60;0.60;;;8.30;66.00;;;8.11;48.94;94395.97;5075826;28;20191;-85
2022/04/21 05:49:49;;;;;;;0.55;0.55;;;8.40;65.50;;;8.16;48.74;94393.59;5059258;28;20250;-85
2022/04/21 05:52:22;;;;;;;0.50;0.50;;;8.40;65.40;;;8.13;48.76;94397.41;5075663;28;20199;-84
2022/04/21 05:54:49;;;;;;;0.60;0.60;;;8.50;65.40;;;8.18;48.97;94396.84;5058978;28;20260;-85
2022/04/21 05:57:17;;;;;;;0.70;0.70;;;8.50;65.30;;;8.23;49.10;94397.06;5055593;28;20198;-85
2022/04/21 05:59:44;;;;;;;0.70;0.70;;;8.60;65.30;;;8.24;49.05;94387.41;5059259;28;20237;-86
2022/04/21 06:02:12;;;;;;;0.70;0.70;;;8.60;65.30;;;8.15;48.74;94371.09;5062341;28;20213;-85
2022/04/21 06:04:39;;;;;;;0.70;0.70;;;8.60;65.20;;;8.25;48.86;94370.75;5039610;28;20692;-85
2022/04/21 06:07:06;;;;;;;0.70;0.70;;;8.70;65.20;;;8.23;49.01;94376.16;5066043;28;20199;-85
2022/04/21 06:09:33;;;;;;;0.60;0.60;;;8.60;65.10;;;8.16;48.70;94370.88;5040955;28;20242;-85
2022/04/21 06:12:02;;;;;;;0.60;0.60;;;8.70;65.10;;;8.17;49.05;94380.34;5042807;28;20256;-85
2022/04/21 06:14:29;;;;;;;0.60;0.60;;;8.70;65.10;;;8.09;48.99;94366.63;5038258;28;20223;-85
2022/04/21 06:16:57;;;;;;;0.50;0.50;;;8.60;65.90;;;8.15;49.02;94371.09;5055668;28;20195;-86
2022/04/21 06:19:24;;;;;;;0.60;0.60;;;8.70;65.20;;;8.01;49.01;94357.94;5056675;28;20280;-86
2022/04/21 06:21:51;;;;;;;0.60;0.60;;;8.60;65.00;;;8.08;49.05;94367.63;5057995;28;20297;-86
2022/04/21 06:24:18;;;;;;;0.60;0.60;;;8.60;65.10;;;8.16;48.93;94375.31;5075983;28;20218;-85
2022/04/21 06:26:45;;;;;;;0.70;0.70;;;8.70;65.10;;;8.18;49.23;94370.72;5040279;28;20199;-86
2022/04/21 06:29:12;;;;;;;0.50;0.50;;;8.70;65.20;;;8.20;49.32;94376.53;5074133;28;20244;-86
2022/04/21 06:31:40;;;;;;;0.60;0.60;;;8.70;65.30;;;8.23;49.55;94373.56;5060558;28;20206;-85
2022/04/21 06:34:07;;;;;;;0.80;0.80;;;8.70;65.40;;;8.28;49.17;94381.63;5057520;28;20217;-86
2022/04/21 06:36:34;;;;;;;0.50;0.50;;;8.70;65.50;;;8.37;49.55;94376.25;5036073;28;20213;-86
2022/04/21 06:39:02;;;;;;;0.52;0.52;;;8.70;65.60;;;8.43;49.46;94365.03;5061064;28;20515;-86
2022/04/21 06:41:30;;;;;;;0.50;0.50;;;8.80;65.70;;;8.59;49.29;94375.22;5063154;28;20226;-85
2022/04/21 06:49:32;;;;;;;0.70;0.70;;;8.90;65.80;;;8.92;49.10;94379.81;5063174;28;20305;-86
2022/04/21 06:52:00;;;;;;;0.70;0.70;;;9.10;65.90;;;8.90;49.01;94363.50;5046252;28;20636;-85
2022/04/21 06:54:27;;;;;;;0.50;0.50;;;9.10;66.80;;;9.12;49.04;94373.88;5047833;28;20225;-85
2022/04/21 06:56:54;;;;;;;0.50;0.50;;;9.20;65.90;;;9.05;49.16;94357.34;5046192;28;20191;-85
2022/04/21 06:59:21;;;;;;;0.60;0.60;;;9.30;65.90;;;9.28;49.30;94385.78;5062895;28;20244;-86
2022/04/21 07:01:48;;;;;;;0.60;0.60;;;9.40;65.90;;;9.27;49.05;94374.50;5060758;28;20195;-86
2022/04/21 07:04:15;;;;;;;0.60;0.60;;;9.50;65.90;;;9.42;48.91;94382.22;5062976;28;20234;-86
2022/04/21 07:06:42;;;;;;;0.60;0.60;;;9.50;65.90;;;9.40;49.03;94371.13;5062702;28;20195;-86
2022/04/21 07:09:10;;;;;;;0.70;0.70;;;9.60;65.90;;;9.64;48.88;94387.25;5078816;28;20219;-86
2022/04/21 07:11:40;;;;;;;0.60;0.60;;;9.70;66.00;;;9.72;48.95;94384.47;5062220;28;20191;-86
2022/04/21 07:14:07;;;;;;;0.70;0.70;;;9.70;66.10;;;9.81;49.17;94387.69;5062963;28;20230;-86
2022/04/21 07:16:34;;;;;;;0.50;0.50;;;9.90;66.00;;;9.89;48.90;94389.34;5045554;28;20195;-86
2022/04/21 07:19:02;;;;;;;0.70;0.70;;;9.90;65.90;;;9.89;48.71;94379.66;5061384;28;20226;-86
2022/04/21 07:21:29;;;;;;;0.70;0.70;;;10.00;64.40;;;9.94;48.68;94368.59;5061187;28;20226;-85
2022/04/21 07:23:56;;;;;;;0.60;0.60;;;10.10;64.40;;;9.99;48.84;94368.78;5053737;28;20230;-86
2022/04/21 07:26:23;;;;;;;0.52;0.52;;;10.20;64.30;;;10.16;48.75;94387.53;5078267;28;20672;-86
2022/04/21 07:28:57;;;;;;;0.50;0.50;;;10.20;64.30;;;10.20;48.61;94388.72;5063684;28;20644;-86
2022/04/21 07:31:24;;;;;;;0.70;0.70;;;10.30;64.30;;;10.09;48.59;94369.19;5061239;28;20558;-86
2022/04/21 07:33:52;;;;;;;0.63;0.63;;;10.40;64.20;;;10.28;48.58;94395.59;5050469;28;20213;-86
2022/04/21 07:36:19;;;;;;;0.50;0.50;;;10.40;64.00;;;10.35;48.49;94392.94;5058704;28;20688;-86
2022/04/21 07:38:49;;;;;;;0.80;0.80;;;10.50;64.00;;;10.38;48.40;94384.72;5090338;28;20739;-86
2022/04/21 07:41:17;;;;;;;0.70;0.70;;;10.50;64.00;;;10.44;48.52;94389.16;5074021;28;20271;-86
2022/04/21 07:43:44;;;;;;;0.70;0.70;;;10.60;64.00;;;10.53;48.28;94384.50;5078773;28;20193;-86
2022/04/21 07:46:13;;;;;;;0.65;0.65;;;10.70;63.90;;;10.56;48.16;94386.72;5076311;28;20289;-86
2022/04/21 07:51:26;;;;;;;0.70;0.70;;;10.70;63.60;;;10.68;47.94;94389.50;5078535;28;20243;-86
2022/04/21 07:53:53;;;;;;;0.70;0.70;;;10.80;63.60;;;10.73;47.81;94385.25;5062956;28;20194;-85
2022/04/21 07:56:20;;;;;;;0.70;0.70;;;10.90;63.60;;;10.77;47.92;94388.28;5077805;28;20253;-86
2022/04/21 07:58:47;;;;;;;0.80;0.80;;;10.90;63.50;;;10.82;47.83;94385.03;5061386;28;20571;-86
2022/04/21 08:01:14;;;;;;;0.55;0.55;;;11.00;63.70;;;10.91;47.61;94390.88;5057324;28;20636;-86
2022/04/21 08:03:43;;;;;;;0.50;0.50;;;11.10;63.50;;;10.99;47.60;94386.19;5053767;28;20198;-86
2022/04/21 08:06:12;;;;;;;0.60;0.60;;;11.10;63.40;;;11.01;47.38;94383.34;5044837;28;20203;-86
2022/04/21 08:08:40;;;;;;;0.70;0.70;;;11.10;63.20;;;11.13;47.37;94386.16;5044977;28;20297;-86
2022/04/21 08:11:08;;;;;;;0.57;0.57;;;11.20;63.00;;;11.23;47.20;94394.41;5042043;28;20298;-86
2022/04/21 08:13:35;;;;;;;0.80;0.80;;;11.30;62.80;;;11.24;46.98;94380.22;5061178;28;20289;-86
2022/04/21 08:16:02;;;;;;;0.50;0.50;;;11.40;62.80;;;11.29;46.78;94372.56;5058001;28;20224;-86
2022/04/21 08:18:29;;;;;;;0.70;0.70;;;11.40;62.70;;;11.26;46.61;94356.41;5058628;28;20222;-86
2022/04/21 08:20:58;;;;;;;0.50;0.50;;;11.50;63.70;;;11.31;46.79;94360.00;5056077;28;20281;-87
2022/04/21 08:23:46;;;;;;;0.60;0.60;;;11.50;62.80;;;11.56;46.92;94380.31;5040585;28;20209;-86
2022/04/21 08:34:42;;;;;;;0.60;0.60;;;11.80;62.70;;;11.91;46.45;94365.91;5069498;28;20644;-85
2022/04/21 08:37:09;;;;;;;0.50;0.50;;;11.90;62.60;;;11.94;46.47;94360.25;5057036;28;20645;-87
2022/04/21 08:39:36;;;;;;;0.60;0.60;;;12.00;62.50;;;12.06;46.19;94363.81;5049330;28;20218;-87
2022/04/21 08:42:10;;;;;;;0.60;0.60;;;12.00;62.50;;;12.18;46.04;94366.53;5077242;28;20236;-87
2022/04/21 08:44:43;;;;;;;0.60;0.60;;;12.10;62.40;;;12.20;46.04;94354.00;5060020;28;20259;-87
2022/04/21 08:47:14;;;;;;;0.50;0.50;;;12.20;62.50;;;12.38;45.94;94368.19;5043523;28;20551;-87
2022/04/21 08:49:47;;;;;;;0.60;0.60;;;12.30;62.40;;;12.46;45.76;94360.84;5060515;28;20251;-87
2022/04/21 08:52:17;;;;;;;0.60;0.60;;;12.30;62.20;;;12.55;45.90;94363.19;5060245;28;20289;-87
2022/04/21 08:54:47;;;;;;;0.60;0.60;;;12.40;62.30;;;12.65;45.78;94364.28;5071776;28;20227;-86
2022/04/21 08:57:15;;;;;;;0.60;0.60;;;12.50;62.30;;;12.74;45.59;94369.28;5043178;28;20198;-87
2022/04/21 08:59:42;;;;;;;0.60;0.60;;;12.60;62.30;;;12.63;45.53;94337.41;5060571;28;20717;-86
2022/04/21 09:02:10;;;;;;;0.80;0.80;;;12.70;62.10;;;12.82;45.51;94354.00;5072983;28;20306;-87
2022/04/21 09:04:37;;;;;;;0.60;0.60;;;12.80;62.10;;;12.91;45.35;94370.28;5041338;28;20222;-85
2022/04/21 09:07:20;;;;;;;0.50;0.50;;;12.80;61.80;;;12.98;45.15;94373.66;5039194;28;20221;-85
2022/04/21 09:10:11;;;;;;;0.50;0.50;;;12.90;61.70;;;13.03;45.22;94366.94;5070850;28;20218;-85
2022/04/21 09:12:48;;;;;;;0.50;0.50;;;13.00;61.80;;;13.11;45.23;94370.06;5038634;28;20205;-85
2022/04/21 09:15:17;;;;;;;0.60;0.60;;;13.00;61.70;;;13.18;45.22;94362.09;5054235;28;20279;-84
2022/04/21 09:17:48;;;;;;;0.60;0.60;;;13.10;62.10;;;13.25;45.20;94357.53;5053700;28;20198;-85
2022/04/21 09:20:21;;;;;;;0.60;0.60;;;13.20;62.10;;;13.35;45.23;94353.59;5052311;28;20268;-85
2022/04/21 09:22:54;;;;;;;0.60;0.60;;;13.20;62.00;;;13.39;45.28;94345.06;5058374;28;20269;-84
2022/04/21 09:25:42;;;;;;;0.60;0.60;;;13.30;62.10;;;13.51;45.04;94353.00;5054382;28;20301;-84
2022/04/21 09:28:31;;;;;;;0.60;0.60;;;13.40;61.90;;;13.56;45.12;94342.59;5060561;28;20197;-84
2022/04/21 09:31:01;;;;;;;0.60;0.60;;;13.50;62.30;;;13.70;45.27;94347.69;5067809;28;20304;-85
2022/04/21 09:33:35;;;;;;;0.60;0.60;;;13.50;62.20;;;13.87;45.10;94342.56;5043087;28;20194;-85
2022/04/21 09:36:06;;;;;;;0.60;0.60;;;13.70;61.90;;;13.97;44.80;94340.16;5059167;28;20719;-85
2022/04/21 09:38:34;;;;;;;0.50;0.50;;;13.80;61.80;;;13.98;44.65;94320.69;5059206;28;20270;-85
2022/04/21 09:41:07;;;;;;;0.50;0.50;;;13.80;61.70;;;14.16;44.29;94332.97;5042667;28;20583;-85
2022/04/21 09:43:37;;;;;;;0.60;0.60;;;13.90;61.30;;;14.21;44.60;94327.00;5059475;28;20195;-85
2022/04/21 09:46:21;;;;;;;0.70;0.70;;;14.00;61.50;;;14.31;44.32;94326.44;5059602;28;20237;-85
2022/04/21 09:48:53;;;;;;;0.50;0.50;;;14.10;61.50;;;14.39;44.26;94328.72;5059321;28;20280;-85
2022/04/21 09:51:27;;;;;;;0.60;0.60;;;14.30;61.50;;;14.47;44.25;94325.72;5075985;28;20227;-84
2022/04/21 09:54:00;;;;;;;0.70;0.70;;;14.30;61.20;;;14.59;43.81;94323.09;5059301;28;20202;-85
2022/04/21 09:56:39;;;;;;;0.60;0.60;;;14.40;60.90;;;14.65;43.24;94318.75;5075675;28;20521;-85
2022/04/21 09:59:10;;;;;;;0.80;0.80;;;14.40;60.50;;;14.77;43.47;94324.81;5056316;28;20213;-85
2022/04/21 10:01:42;;;;;;;0.60;0.60;;;14.50;60.60;;;14.84;43.17;94316.75;5075405;28;20236;-85
2022/04/21 10:04:11;;;;;;;0.50;0.50;;;14.60;60.40;;;14.91;42.98;94314.81;5059007;28;20560;-85
2022/04/21 10:06:41;;;;;;;0.50;0.50;;;14.70;60.10;;;14.94;42.61;94300.31;5058383;28;20190;-85
2022/04/21 10:09:09;;;;;;;0.60;0.60;;;14.80;60.40;;;15.08;42.61;94300.88;5056323;28;20715;-85
2022/04/21 10:11:42;;;;;;;0.60;0.60;;;14.80;59.90;;;15.12;42.32;94305.44;5041607;28;20233;-85
2022/04/21 10:14:17;;;;;;;0.60;0.60;;;14.90;60.00;;;15.18;42.38;94315.09;5074549;28;20217;-85
2022/04/21 10:16:46;;;;;;;0.65;0.65;;;15.00;59.40;;;15.20;42.26;94294.50;5074121;28;20202;-85
2022/04/21 10:19:16;;;;;;;0.60;0.60;;;15.00;59.40;;;15.35;42.57;94301.09;5057942;28;20217;-86
2022/04/21 10:21:52;;;;;;;0.50;0.50;;;15.10;59.90;;;15.44;42.33;94298.88;5042607;28;20242;-85
2022/04/21 10:24:25;;;;;;;0.50;0.50;;;15.20;59.60;;;15.51;42.66;94296.88;5058722;28;20225;-85
2022/04/21 10:26:53;;;;;;;0.50;0.50;;;15.30;59.70;;;15.64;42.36;94296.59;5058233;28;20202;-86
2022/04/21 10:29:27;;;;;;;0.57;0.57;;;15.40;59.80;;;15.76;41.86;94291.25;5075350;28;20229;-86
2022/04/21 10:32:03;;;;;;;0.50;0.50;;;15.50;60.00;;;15.88;41.95;94283.28;5058808;28;20216;-86
2022/04/21 10:34:42;;;;;;;0.70;0.70;;;15.60;59.70;;;15.83;41.89;94272.59;5059036;28;20819;-86
2022/04/21 10:37:24;;;;;;;0.50;0.50;;;15.70;59.50;;;15.98;41.20;94275.47;5074810;28;20208;-85
2022/04/21 10:40:09;;;;;;;0.50;0.50;;;15.80;58.20;;;16.08;41.42;94279.34;5074315;28;20267;-86
2022/04/21 10:42:52;;;;;;;0.70;0.70;;;15.80;58.80;;;16.20;41.53;94277.41;5075369;28;20217;-86
2022/04/21 10:45:33;;;;;;;0.52;0.52;;;15.90;58.90;;;16.29;41.11;94270.63;5058612;28;20226;-86
2022/04/21 10:48:08;;;;;;;0.50;0.50;;;16.00;60.10;;;16.42;40.98;94277.44;5058824;28;20620;-85
2022/04/21 10:50:37;;;;;;;0.60;0.60;;;16.10;58.40;;;16.48;40.83;94270.38;5041760;28;20610;-86
2022/04/21 10:58:37;;;;;;;0.43;0.43;;;16.30;58.10;;;16.39;40.21;94274.47;5077836;28;20213;-85
2022/04/21 11:01:27;;;;;;;0.70;0.70;;;16.40;57.70;;;16.36;40.37;94273.13;5074787;28;20228;-86
2022/04/21 11:04:19;;;;;;;0.52;0.52;;;16.30;57.10;;;16.36;40.59;94261.75;5058583;28;20599;-85
2022/04/21 11:07:12;;;;;;;0.50;0.50;;;16.30;56.90;;;16.36;40.17;94257.25;5041772;28;20208;-86
2022/04/21 11:09:50;;;;;;;0.50;0.50;;;16.40;56.90;;;16.49;40.07;94264.84;5058792;28;20285;-86
2022/04/21 11:12:49;;;;;;;0.60;0.60;;;16.40;56.80;;;16.55;40.18;94252.47;5063798;28;20264;-86
2022/04/21 11:15:58;;;;;;;0.50;0.50;;;16.50;57.20;;;16.64;39.91;94248.34;5057443;28;20312;-86
2022/04/21 11:18:31;;;;;;;0.50;0.50;;;16.50;57.20;;;16.75;39.64;94243.19;5059162;28;20653;-85
2022/04/21 11:21:26;;;;;;;0.50;0.50;;;16.60;56.90;;;16.90;39.77;94247.84;5045286;28;20225;-85
2022/04/21 11:23:53;;;;;;;0.55;0.55;;;16.60;56.90;;;17.08;39.82;94238.81;5078427;28;20198;-86